createdAt,value
2022-12-15T00:01:40.561Z,-5.96
2022-12-15T00:07:21.332Z,-6.01
2022-12-15T00:13:01.760Z,-6.17
2022-12-15T00:18:42.043Z,-6.33
2022-12-15T00:24:23.016Z,-6.67
2022-12-15T00:30:03.626Z,-6.87
2022-12-15T00:35:44.477Z,-6.69
2022-12-15T00:41:06.586Z,-6.69
2022-12-15T00:46:47.301Z,-6.96
2022-12-15T00:52:28.981Z,-6.78
2022-12-15T00:58:09.440Z,-7.04
2022-12-15T01:03:50.601Z,-7.19
2022-12-15T01:09:32.997Z,-7.35
2022-12-15T01:15:12.859Z,-7.55
2022-12-15T01:20:35.202Z,-7.66
2022-12-15T01:25:56.854Z,-7.61
2022-12-15T01:31:18.836Z,-7.94
2022-12-15T01:36:41.141Z,-8.03
2022-12-15T01:42:02.831Z,-8.01
2022-12-15T01:47:28.321Z,-7.88
2022-12-15T01:52:51.579Z,-8.03
2022-12-15T01:58:16.723Z,-8.38
2022-12-15T02:04:24.065Z,-8.67
2022-12-15T02:16:40.412Z,-8.62
2022-12-15T02:22:40.639Z,-8.54
2022-12-15T02:28:11.521Z,-8.58
2022-12-15T02:33:37.699Z,-8.73
2022-12-15T02:39:13.498Z,-9.00
2022-12-15T02:44:59.151Z,-8.96
2022-12-15T02:50:53.228Z,-8.94
2022-12-15T02:56:43.476Z,-9.25
2022-12-15T03:02:09.398Z,-9.31
2022-12-15T03:07:31.263Z,-9.58
2022-12-15T03:12:55.563Z,-9.82
2022-12-15T03:18:17.512Z,-9.74
2022-12-15T03:23:39.551Z,-9.83
2022-12-15T03:29:01.468Z,-9.79
2022-12-15T03:34:23.459Z,-9.51
2022-12-15T03:39:45.466Z,-9.40
2022-12-15T03:45:08.091Z,-9.23
2022-12-15T03:50:32.988Z,-9.14
2022-12-15T03:55:55.449Z,-9.17
2022-12-15T04:08:17.898Z,-9.92
2022-12-15T04:14:04.879Z,-9.85
2022-12-15T04:19:52.069Z,-9.69
2022-12-15T04:25:36.510Z,-9.82
2022-12-15T04:31:39.979Z,-9.70
2022-12-15T04:37:22.058Z,-9.81
2022-12-15T04:43:07.160Z,-10.09
2022-12-15T04:48:51.983Z,-10.21
2022-12-15T04:54:33.459Z,-10.00
2022-12-15T05:00:16.860Z,-9.90
2022-12-15T05:05:57.700Z,-9.95
2022-12-15T05:11:38.759Z,-9.93
2022-12-15T05:17:18.871Z,-9.84
2022-12-15T05:22:59.109Z,-9.86
2022-12-15T05:28:39.418Z,-9.99
2022-12-15T05:34:05.220Z,-9.94
2022-12-15T05:39:28.478Z,-10.07
2022-12-15T05:44:50.181Z,-9.88
2022-12-15T05:50:12.140Z,-9.92
2022-12-15T05:55:34.039Z,-9.96
2022-12-15T06:00:55.801Z,-9.68
2022-12-15T06:06:18.991Z,-9.55
2022-12-15T06:11:40.930Z,-9.51
2022-12-15T06:17:02.928Z,-9.53
2022-12-15T06:22:25.028Z,-9.49
2022-12-15T06:27:47.056Z,-9.23
2022-12-15T06:33:09.231Z,-9.04
2022-12-15T06:38:32.208Z,-9.08
2022-12-15T06:43:58.328Z,-8.76
2022-12-15T06:49:20.040Z,-8.54
2022-12-15T06:54:42.830Z,-8.17
2022-12-15T07:00:05.601Z,-8.07
2022-12-15T07:05:28.128Z,-7.80
2022-12-15T07:10:50.119Z,-7.65
2022-12-15T07:16:13.008Z,-7.44
2022-12-15T07:21:34.996Z,-7.33
2022-12-15T07:26:57.122Z,-7.11
2022-12-15T07:32:19.056Z,-6.88
2022-12-15T07:37:41.158Z,-6.98
2022-12-15T07:43:03.219Z,-7.28
2022-12-15T07:48:24.740Z,-7.31
2022-12-15T07:53:47.431Z,-7.17
2022-12-15T07:59:10.460Z,-6.86
2022-12-15T08:04:32.300Z,-6.92
2022-12-15T08:09:54.492Z,-6.55
2022-12-15T08:15:16.849Z,-6.33
2022-12-15T08:20:38.821Z,-6.21
2022-12-15T08:26:10.999Z,-5.84
2022-12-15T08:31:34.554Z,-5.70
2022-12-15T08:36:56.714Z,-5.55
2022-12-15T08:42:18.781Z,-5.40
2022-12-15T08:47:41.319Z,-5.36
2022-12-15T08:53:29.514Z,-5.21
2022-12-15T08:58:47.221Z,-5.13
2022-12-15T09:04:23.341Z,-5.08
2022-12-15T09:09:45.489Z,-5.03
2022-12-15T09:15:07.880Z,-4.97
2022-12-15T09:20:30.058Z,-4.89
2022-12-15T09:25:52.052Z,-4.93
2022-12-15T09:31:17.118Z,-4.84
2022-12-15T09:36:39.094Z,-4.76
2022-12-15T09:42:01.927Z,-4.75
2022-12-15T09:47:43.002Z,-4.74
2022-12-15T09:53:36.703Z,-4.74
2022-12-15T09:59:04.772Z,-4.82
2022-12-15T10:04:58.052Z,-4.91
2022-12-15T10:10:55.003Z,-4.96
2022-12-15T10:16:32.254Z,-5.00
2022-12-15T10:21:54.221Z,-5.27
2022-12-15T10:27:20.028Z,-5.36
2022-12-15T10:32:51.472Z,-5.42
2022-12-15T10:38:39.384Z,-5.45
2022-12-15T10:44:03.390Z,-5.62
2022-12-15T10:49:26.122Z,-5.81
2022-12-15T10:54:51.170Z,-5.73
2022-12-15T11:00:15.853Z,-5.79
2022-12-15T11:05:37.860Z,-6.03
2022-12-15T11:11:18.190Z,-6.20
2022-12-15T11:16:49.212Z,-6.17
2022-12-15T11:22:46.622Z,-6.32
2022-12-15T11:28:28.986Z,-6.36
2022-12-15T11:33:54.300Z,-6.36
2022-12-15T11:39:33.242Z,-6.41
2022-12-15T11:45:35.790Z,-6.36
2022-12-15T11:51:11.481Z,-6.51
2022-12-15T11:56:35.058Z,-6.63
2022-12-15T12:02:31.260Z,-6.64
2022-12-15T12:08:13.058Z,-6.72
2022-12-15T12:20:41.399Z,-6.93
2022-12-15T12:26:20.061Z,-6.93
2022-12-15T12:32:08.240Z,-6.89
2022-12-15T12:37:42.301Z,-6.78
2022-12-15T12:43:08.663Z,-6.91
2022-12-15T12:48:40.150Z,-6.78
2022-12-15T12:54:03.251Z,-6.74
2022-12-15T12:59:31.622Z,-6.68
2022-12-15T13:05:01.011Z,-6.66
2022-12-15T13:10:26.550Z,-6.61
2022-12-15T13:16:01.540Z,-6.61
2022-12-15T13:21:53.168Z,-6.60
2022-12-15T13:27:16.339Z,-6.62
2022-12-15T13:32:48.829Z,-6.63
2022-12-15T13:38:20.380Z,-6.63
2022-12-15T13:43:46.880Z,-6.58
2022-12-15T13:49:34.000Z,-6.55
2022-12-15T13:55:00.850Z,-6.57
2022-12-15T14:00:23.811Z,-6.64
2022-12-15T14:05:58.720Z,-6.57
2022-12-15T14:11:52.034Z,-6.56
2022-12-15T14:17:37.701Z,-6.53
2022-12-15T14:23:00.196Z,-6.51
2022-12-15T14:28:36.557Z,-6.33
2022-12-15T14:34:08.250Z,-6.44
2022-12-15T14:40:05.752Z,-6.34
2022-12-15T14:59:54.606Z,-6.47
2022-12-15T15:05:28.494Z,-6.40
2022-12-15T15:10:54.204Z,-6.65
2022-12-15T15:16:21.632Z,-6.79
2022-12-15T15:28:45.122Z,-6.77
2022-12-15T15:34:30.004Z,-6.79
2022-12-15T15:40:39.391Z,-6.49
2022-12-15T15:52:07.476Z,-6.97
2022-12-15T15:57:41.296Z,-6.92
2022-12-15T16:03:03.777Z,-6.74
2022-12-15T16:08:30.113Z,-6.87
2022-12-15T16:13:52.331Z,-6.86
2022-12-15T16:19:14.007Z,-6.91
2022-12-15T16:24:35.997Z,-6.90
2022-12-15T16:29:58.868Z,-7.04
2022-12-15T16:35:20.954Z,-7.09
2022-12-15T16:40:42.767Z,-6.99
2022-12-15T16:46:04.787Z,-7.13
2022-12-15T16:51:38.353Z,-7.15
2022-12-15T16:57:00.805Z,-7.15
2022-12-15T17:02:27.980Z,-7.15
2022-12-15T17:07:56.711Z,-7.27
2022-12-15T17:13:45.737Z,-7.18
2022-12-15T17:19:07.975Z,-7.29
2022-12-15T17:24:29.817Z,-7.13
2022-12-15T17:29:51.838Z,-7.08
2022-12-15T17:35:13.804Z,-7.15
2022-12-15T17:40:36.283Z,-7.23
2022-12-15T17:45:58.417Z,-7.03
2022-12-15T17:51:20.902Z,-7.12
2022-12-15T17:56:44.971Z,-7.11
2022-12-15T18:02:10.696Z,-7.02
2022-12-15T18:07:34.353Z,-7.08
2022-12-15T18:12:57.099Z,-7.14
2022-12-15T18:18:21.332Z,-7.05
2022-12-15T18:23:45.042Z,-7.04
2022-12-15T18:29:17.090Z,-7.14
2022-12-15T18:34:39.002Z,-7.26
2022-12-15T18:40:04.850Z,-7.19
2022-12-15T18:45:28.380Z,-7.11
2022-12-15T18:50:55.485Z,-7.23
2022-12-15T18:56:22.064Z,-7.02
2022-12-15T19:01:46.215Z,-7.00
2022-12-15T19:07:11.763Z,-7.07
2022-12-15T19:12:40.766Z,-6.96
2022-12-15T19:18:23.072Z,-7.19
2022-12-15T19:23:48.440Z,-7.12
2022-12-15T19:29:17.426Z,-6.77
2022-12-15T19:34:40.159Z,-6.78
2022-12-15T19:40:06.148Z,-6.75
2022-12-15T19:45:33.621Z,-6.70
2022-12-15T19:50:55.953Z,-6.85
2022-12-15T19:56:22.290Z,-6.80
2022-12-15T20:01:49.495Z,-6.76
2022-12-15T20:07:21.311Z,-6.77
2022-12-15T20:12:43.811Z,-6.62
2022-12-15T20:18:06.418Z,-6.69
2022-12-15T20:23:32.553Z,-6.46
2022-12-15T20:28:55.509Z,-6.46
2022-12-15T20:34:17.492Z,-6.43
2022-12-15T20:39:40.423Z,-6.32
2022-12-15T20:45:02.758Z,-6.32
2022-12-15T20:50:27.471Z,-6.20
2022-12-15T20:55:50.969Z,-6.18
2022-12-15T21:01:28.623Z,-6.13
2022-12-15T21:06:54.638Z,-6.15
2022-12-15T21:12:28.570Z,-6.15
2022-12-15T21:18:19.655Z,-6.08
2022-12-15T21:23:42.547Z,-6.30
2022-12-15T21:29:12.470Z,-6.25
2022-12-15T21:34:35.126Z,-5.96
2022-12-15T21:39:58.670Z,-6.09
2022-12-15T21:45:32.810Z,-5.97
2022-12-15T21:50:54.929Z,-5.96
2022-12-15T21:56:22.159Z,-5.85
2022-12-15T22:01:44.854Z,-5.96
2022-12-15T22:07:10.030Z,-5.79
2022-12-15T22:12:32.071Z,-5.97
2022-12-15T22:17:53.935Z,-5.85
2022-12-15T22:23:23.740Z,-5.73
2022-12-15T22:28:45.688Z,-5.72
2022-12-15T22:34:28.238Z,-5.74
2022-12-15T22:39:50.443Z,-5.80
2022-12-15T22:45:18.115Z,-5.67
2022-12-15T22:50:40.471Z,-5.61
2022-12-15T22:56:06.599Z,-5.63
2022-12-15T23:01:29.997Z,-5.72
2022-12-15T23:06:52.240Z,-5.66
2022-12-15T23:12:14.426Z,-5.61
2022-12-15T23:17:37.351Z,-5.72
2022-12-15T23:23:00.368Z,-5.55
2022-12-15T23:28:25.619Z,-5.72
2022-12-15T23:33:48.121Z,-5.71
2022-12-15T23:39:10.441Z,-5.65
2022-12-15T23:44:32.996Z,-5.62
2022-12-15T23:49:55.038Z,-5.51
2022-12-15T23:55:17.280Z,-5.47
